createdAt,value
2022-09-05T09:25:14.756Z,25.30
2022-09-05T09:28:49.775Z,25.00
2022-09-05T09:31:47.803Z,24.70
2022-09-05T09:34:26.607Z,24.60
2022-09-05T09:36:59.431Z,24.60
2022-09-05T09:42:34.908Z,24.70
2022-09-05T09:45:27.459Z,24.70
2022-09-05T09:48:02.088Z,24.80
2022-09-05T09:50:31.811Z,24.90
2022-09-05T09:53:29.726Z,24.90
2022-09-05T09:56:46.569Z,25.00
2022-09-05T09:59:57.418Z,25.10
2022-09-05T10:05:46.236Z,25.00
2022-09-05T10:10:39.331Z,24.90
2022-09-05T10:20:17.506Z,26.10
2022-09-05T10:23:11.955Z,26.10
2022-09-05T10:25:51.719Z,26.40
2022-09-05T10:28:35.262Z,26.40
2022-09-05T10:32:53.601Z,26.60
2022-09-05T10:35:15.498Z,26.60
2022-09-05T10:37:02.610Z,26.50
2022-09-05T10:39:32.014Z,26.50
2022-09-05T10:42:03.622Z,26.60
2022-09-05T10:44:48.236Z,26.60
2022-09-05T10:47:35.761Z,26.70
2022-09-05T10:50:11.746Z,26.60
2022-09-05T10:53:10.681Z,26.50
2022-09-05T10:56:09.247Z,26.60
2022-09-05T11:02:08.110Z,26.90
2022-09-05T11:02:27.976Z,27.00
2022-09-05T11:05:19.996Z,27.10
2022-09-05T11:08:16.372Z,27.10
2022-09-05T11:11:29.547Z,27.10
2022-09-05T11:14:03.683Z,27.00
2022-09-05T11:16:52.534Z,26.80
2022-09-05T11:19:22.906Z,26.40
2022-09-05T11:22:21.924Z,26.20
2022-09-05T11:24:55.642Z,26.10
2022-09-05T11:27:40.027Z,26.20
2022-09-05T11:30:31.039Z,26.20
2022-09-05T11:39:13.413Z,26.10
2022-09-05T11:39:51.197Z,26.00
2022-09-05T11:40:24.712Z,26.00
2022-09-05T11:42:17.811Z,25.80
2022-09-05T11:44:50.736Z,25.60
2022-09-05T11:47:42.227Z,25.50
2022-09-05T11:50:36.204Z,25.50
2022-09-05T11:53:18.273Z,25.40
2022-09-05T11:55:50.954Z,25.40
2022-09-05T11:58:45.069Z,25.10
2022-09-05T12:01:41.788Z,24.90
2022-09-05T12:04:27.692Z,24.70
2022-09-05T12:06:59.428Z,24.50
2022-09-05T12:10:47.937Z,24.50
2022-09-05T12:13:24.490Z,24.60
2022-09-05T12:16:08.635Z,24.60
2022-09-05T12:18:57.381Z,24.50
2022-09-05T12:21:59.119Z,24.50
2022-09-05T12:25:25.778Z,24.30
2022-09-05T12:27:39.426Z,24.30
2022-09-05T12:30:15.253Z,24.20
2022-09-05T12:36:04.010Z,24.20
2022-09-05T12:40:15.733Z,24.20
2022-09-05T12:41:32.021Z,24.30
2022-09-05T12:43:52.694Z,24.50
2022-09-05T12:45:50.180Z,24.60
2022-09-05T12:48:38.651Z,24.70
2022-09-05T12:51:46.614Z,24.70
2022-09-05T12:54:24.806Z,24.70
2022-09-05T13:02:58.887Z,24.80
2022-09-05T13:03:08.948Z,24.70
2022-09-05T13:03:35.573Z,24.70
2022-09-05T13:06:25.780Z,24.70
2022-09-05T13:09:05.603Z,24.70
2022-09-05T13:14:50.360Z,24.70
2022-09-05T13:15:08.116Z,24.70
2022-09-05T13:18:07.375Z,24.70
2022-09-05T13:20:39.730Z,24.80
2022-09-05T13:23:41.084Z,24.90
2022-09-05T13:26:23.736Z,24.90
2022-09-05T13:29:10.153Z,25.00
2022-09-05T13:37:53.800Z,25.10
2022-09-05T13:38:03.702Z,25.10
2022-09-05T13:38:10.674Z,25.10
2022-09-05T13:40:22.982Z,25.10
2022-09-05T13:43:15.724Z,25.10
2022-09-05T13:45:53.013Z,25.10
2022-09-05T13:48:28.381Z,25.00
2022-09-05T13:50:57.716Z,24.90
2022-09-05T13:53:36.877Z,24.90
2022-09-05T13:56:20.344Z,24.80
2022-09-05T13:58:56.981Z,24.80
2022-09-05T14:01:30.273Z,24.80
2022-09-05T14:04:06.727Z,24.80
2022-09-05T14:06:48.918Z,24.80
2022-09-05T14:09:53.704Z,24.70
2022-09-05T14:12:23.650Z,24.70
2022-09-05T14:15:10.853Z,24.70
2022-09-05T14:17:59.780Z,24.60
2022-09-05T14:20:51.010Z,24.50
2022-09-05T14:23:18.324Z,24.50
2022-09-05T14:25:52.328Z,24.50
2022-09-05T14:28:30.065Z,24.50
2022-09-05T14:34:05.754Z,24.70
2022-09-05T14:37:52.209Z,24.70
2022-09-05T14:37:54.599Z,24.70
2022-09-05T14:40:36.291Z,24.70
2022-09-05T14:43:31.235Z,24.70
2022-09-05T14:46:11.083Z,24.70
2022-09-05T14:48:43.526Z,24.60
2022-09-05T14:51:25.885Z,24.60
2022-09-05T15:01:50.068Z,24.70
2022-09-05T15:02:41.334Z,24.70
2022-09-05T15:03:03.633Z,24.70
2022-09-05T15:05:41.137Z,24.60
2022-09-05T15:09:48.874Z,24.50
2022-09-05T15:12:17.891Z,24.50
2022-09-05T15:14:03.853Z,24.50
2022-09-05T15:16:32.177Z,24.50
2022-09-05T15:18:59.143Z,24.40
2022-09-05T15:21:34.006Z,24.50
2022-09-05T15:24:17.494Z,24.50
2022-09-05T15:27:04.486Z,24.40
2022-09-05T15:29:35.452Z,24.40
2022-09-05T15:32:23.682Z,24.40
2022-09-05T15:34:50.956Z,24.40
2022-09-05T15:37:36.630Z,24.40
2022-09-05T15:40:23.029Z,24.30
2022-09-05T15:42:50.969Z,24.30
2022-09-05T15:45:28.232Z,24.30
2022-09-05T15:48:14.779Z,24.40
2022-09-05T15:50:46.404Z,24.40
2022-09-05T15:53:34.557Z,24.30
2022-09-05T15:56:10.862Z,24.40
2022-09-05T15:58:53.278Z,24.40
2022-09-05T16:01:58.874Z,24.40
2022-09-05T16:06:41.400Z,24.50
2022-09-05T16:10:27.871Z,24.50
2022-09-05T16:10:33.561Z,24.50
2022-09-05T16:12:46.072Z,24.50
2022-09-05T16:18:15.732Z,24.50
2022-09-05T16:23:23.590Z,24.50
2022-09-05T16:23:33.124Z,24.40
2022-09-05T16:26:54.380Z,24.40
2022-09-05T16:29:47.479Z,24.30
2022-09-05T16:32:26.049Z,24.30
2022-09-05T16:34:56.544Z,24.30
2022-09-05T16:37:34.482Z,24.20
2022-09-05T16:40:24.364Z,24.20
2022-09-05T16:43:02.854Z,24.20
2022-09-05T16:45:54.189Z,24.20
2022-09-05T16:48:39.288Z,24.20
2022-09-05T16:51:15.727Z,24.10
2022-09-05T16:53:58.559Z,24.10
2022-09-05T16:56:37.959Z,24.10
2022-09-05T16:59:10.503Z,24.00
2022-09-05T17:02:06.753Z,24.00
2022-09-05T17:05:04.096Z,24.00
2022-09-05T17:07:35.604Z,23.90
2022-09-05T17:10:11.536Z,23.90
2022-09-05T17:12:38.597Z,23.80
2022-09-05T17:15:09.821Z,23.80
2022-09-05T17:18:22.617Z,23.70
2022-09-05T17:20:36.997Z,23.70
2022-09-05T17:29:01.277Z,23.70
2022-09-05T17:29:45.823Z,23.60
2022-09-05T17:29:49.643Z,23.60
2022-09-05T17:31:54.473Z,23.60
2022-09-05T17:34:28.613Z,23.60
2022-09-05T17:37:17.925Z,23.60
2022-09-05T17:39:48.826Z,23.50
2022-09-05T17:42:19.108Z,23.50
2022-09-05T17:45:03.072Z,23.50
2022-09-05T17:47:44.421Z,23.50
2022-09-05T17:50:17.528Z,23.40
2022-09-05T17:52:57.051Z,23.50
2022-09-05T17:55:43.736Z,23.40
2022-09-05T17:58:48.862Z,23.40
2022-09-05T18:01:26.910Z,23.40
2022-09-05T18:03:55.857Z,23.30
2022-09-05T18:06:59.049Z,23.30
2022-09-05T18:09:48.247Z,23.20
2022-09-05T18:13:13.285Z,23.20
2022-09-05T18:15:27.419Z,23.10
2022-09-05T18:17:54.380Z,23.10
2022-09-05T18:20:36.140Z,23.00
2022-09-05T18:23:38.909Z,23.00
2022-09-05T18:26:06.883Z,22.90
2022-09-05T18:28:59.102Z,22.90
2022-09-05T18:31:41.385Z,22.80
2022-09-05T18:34:21.293Z,22.80
2022-09-05T18:36:51.756Z,22.70
2022-09-05T18:39:24.828Z,22.70
2022-09-05T18:42:26.043Z,22.60
2022-09-05T18:45:28.843Z,22.70
2022-09-05T18:48:01.633Z,22.70
2022-09-05T18:50:32.917Z,22.70
2022-09-05T18:53:09.475Z,22.70
2022-09-05T18:56:12.706Z,22.70
2022-09-05T18:58:28.913Z,22.70
2022-09-05T19:00:56.022Z,22.60
2022-09-05T19:03:28.182Z,22.70
2022-09-05T19:06:34.759Z,22.60
2022-09-05T19:09:05.546Z,22.60
2022-09-05T19:11:49.582Z,22.50
2022-09-05T19:14:49.013Z,22.50
2022-09-05T19:17:45.440Z,22.40
2022-09-05T19:20:32.803Z,22.30
2022-09-05T19:23:23.587Z,22.20
2022-09-05T19:26:11.231Z,22.10
2022-09-05T19:36:46.281Z,22.10
2022-09-05T19:36:52.113Z,22.10
2022-09-05T19:37:11.975Z,22.00
2022-09-05T19:37:26.124Z,21.90
2022-09-05T19:44:28.203Z,21.90
2022-09-05T19:47:35.380Z,21.80
2022-09-05T19:47:42.047Z,21.70
2022-09-05T19:48:35.063Z,21.70
2022-09-05T19:51:17.421Z,21.60
2022-09-05T19:53:58.315Z,21.60
2022-09-05T19:56:35.973Z,21.50
2022-09-05T19:59:03.724Z,21.40
2022-09-05T20:01:30.959Z,21.40
2022-09-05T20:03:59.079Z,21.30
2022-09-05T20:06:30.170Z,21.20
2022-09-05T20:09:18.273Z,21.20
2022-09-05T20:11:56.790Z,21.10
2022-09-05T20:14:23.620Z,21.00
2022-09-05T20:16:51.965Z,21.00
2022-09-05T20:19:33.377Z,20.90
2022-09-05T20:22:17.392Z,20.90
2022-09-05T20:24:52.565Z,20.80
2022-09-05T20:27:19.628Z,20.70
2022-09-05T20:29:57.912Z,20.60
2022-09-05T20:32:38.752Z,20.50
2022-09-05T20:38:32.948Z,20.40
2022-09-05T20:43:17.116Z,20.20
2022-09-05T20:43:21.924Z,20.30
2022-09-05T20:43:54.176Z,20.10
2022-09-05T20:50:48.401Z,20.00
2022-09-05T20:54:08.322Z,19.90
2022-09-05T20:54:23.201Z,19.90
2022-09-05T20:55:38.387Z,19.80
2022-09-05T20:58:13.555Z,19.80
2022-09-05T21:01:12.579Z,19.80
2022-09-05T21:03:36.780Z,19.80
2022-09-05T21:06:22.542Z,19.80
2022-09-05T21:08:51.048Z,19.80
2022-09-05T21:11:20.571Z,19.80
2022-09-05T21:13:52.776Z,19.70
2022-09-05T21:16:28.037Z,19.70
2022-09-05T21:18:54.838Z,19.60
2022-09-05T21:21:32.354Z,19.60
2022-09-05T21:24:16.923Z,19.50
2022-09-05T21:26:48.436Z,19.50
2022-09-05T21:29:16.617Z,19.40
2022-09-05T21:31:49.236Z,19.30
2022-09-05T21:34:38.390Z,19.30
2022-09-05T21:37:12.643Z,19.20
2022-09-05T21:39:42.950Z,19.10
2022-09-05T21:44:05.776Z,19.10
2022-09-05T21:47:41.328Z,19.00
2022-09-05T21:48:03.206Z,18.90
2022-09-05T21:50:58.754Z,18.80
2022-09-05T21:57:01.783Z,18.80
2022-09-05T21:59:29.610Z,18.80
2022-09-05T21:59:29.833Z,18.90
2022-09-05T22:01:59.965Z,18.80
2022-09-05T22:04:27.078Z,18.80
2022-09-05T22:06:55.562Z,18.70
2022-09-05T22:09:22.678Z,18.70
2022-09-05T22:11:52.733Z,18.60
2022-09-05T22:14:21.086Z,18.60
2022-09-05T22:16:50.255Z,18.60
2022-09-05T22:19:27.015Z,18.60
2022-09-05T22:22:15.495Z,18.50
2022-09-05T22:24:55.100Z,18.50
2022-09-05T22:27:21.960Z,18.40
2022-09-05T22:29:50.358Z,18.40
2022-09-05T22:32:25.890Z,18.30
2022-09-05T22:35:26.921Z,18.30
2022-09-05T22:37:49.462Z,18.30
2022-09-05T22:40:27.224Z,18.30
2022-09-05T22:42:58.048Z,18.20
2022-09-05T22:45:25.200Z,18.20
2022-09-05T22:47:52.274Z,18.20
2022-09-05T22:50:19.167Z,18.20
2022-09-05T22:52:46.008Z,18.10
2022-09-05T22:55:12.876Z,18.20
2022-09-05T22:57:39.830Z,18.10
2022-09-05T23:00:07.568Z,18.00
2022-09-05T23:02:35.268Z,18.00
2022-09-05T23:05:02.950Z,18.00
2022-09-05T23:07:29.698Z,18.00
2022-09-05T23:09:56.457Z,17.90
2022-09-05T23:12:23.309Z,17.80
2022-09-05T23:14:50.155Z,17.80
2022-09-05T23:17:16.992Z,17.80
2022-09-05T23:19:43.732Z,17.70
2022-09-05T23:22:10.572Z,17.70
2022-09-05T23:24:37.414Z,17.70
2022-09-05T23:27:04.224Z,17.80
2022-09-05T23:29:30.999Z,17.70
2022-09-05T23:31:57.805Z,17.70
2022-09-05T23:34:25.620Z,17.70
2022-09-05T23:36:52.421Z,17.70
2022-09-05T23:39:19.307Z,17.70
2022-09-05T23:41:46.243Z,17.70
2022-09-05T23:44:13.523Z,17.60
2022-09-05T23:46:40.501Z,17.60
2022-09-05T23:49:07.477Z,17.60
2022-09-05T23:51:34.320Z,17.60
2022-09-05T23:54:01.110Z,17.50
2022-09-05T23:56:27.887Z,17.50
2022-09-05T23:58:56.994Z,17.40
